createdAt,value
2018-06-11T00:01:56.653Z,20.50
2018-06-11T00:04:24.872Z,19.33
2018-06-11T00:06:52.804Z,20.67
2018-06-11T00:09:21.184Z,22.53
2018-06-11T00:11:49.383Z,22.30
2018-06-11T00:14:17.557Z,19.90
2018-06-11T00:16:46.653Z,21.07
2018-06-11T00:19:14.822Z,19.10
2018-06-11T00:21:43.000Z,17.53
2018-06-11T00:24:11.177Z,22.10
2018-06-11T00:26:39.378Z,26.23
2018-06-11T00:29:07.539Z,42.60
2018-06-11T00:31:35.733Z,26.90
2018-06-11T00:34:03.893Z,25.20
2018-06-11T00:36:32.061Z,20.87
2018-06-11T00:39:00.235Z,20.00
2018-06-11T00:41:28.177Z,21.63
2018-06-11T00:43:56.343Z,24.23
2018-06-11T00:46:24.524Z,19.97
2018-06-11T00:48:52.704Z,23.33
2018-06-11T00:51:20.861Z,22.87
2018-06-11T00:53:49.057Z,19.57
2018-06-11T00:56:17.210Z,22.13
2018-06-11T00:58:45.405Z,24.23
2018-06-11T01:01:13.564Z,22.67
2018-06-11T01:03:41.755Z,23.97
2018-06-11T01:06:09.942Z,26.70
2018-06-11T01:08:37.875Z,26.40
2018-06-11T01:11:06.041Z,24.83
2018-06-11T01:13:34.233Z,23.97
2018-06-11T01:16:02.453Z,26.60
2018-06-11T01:18:30.643Z,25.27
2018-06-11T01:20:58.833Z,25.83
2018-06-11T01:23:27.009Z,27.37
2018-06-11T01:25:55.209Z,25.43
2018-06-11T01:28:23.378Z,27.73
2018-06-11T01:30:51.573Z,24.47
2018-06-11T01:33:19.768Z,26.10
2018-06-11T01:35:47.932Z,28.30
2018-06-11T01:38:16.110Z,25.33
2018-06-11T01:40:44.265Z,24.63
2018-06-11T01:43:12.486Z,24.43
2018-06-11T01:45:40.685Z,23.33
2018-06-11T01:48:08.905Z,21.97
2018-06-11T01:50:37.111Z,25.40
2018-06-11T01:53:05.265Z,25.37
2018-06-11T01:55:33.458Z,26.27
2018-06-11T01:58:01.650Z,30.30
2018-06-11T02:00:29.859Z,55.17
2018-06-11T02:02:58.025Z,21.97
2018-06-11T02:05:26.217Z,27.53
2018-06-11T02:07:54.404Z,35.57
2018-06-11T02:10:22.328Z,26.93
2018-06-11T02:12:50.500Z,24.70
2018-06-11T02:15:18.706Z,25.90
2018-06-11T02:17:46.655Z,24.53
2018-06-11T02:20:14.869Z,23.57
2018-06-11T02:22:43.038Z,21.50
2018-06-11T02:25:11.254Z,20.53
2018-06-11T02:27:39.436Z,24.03
2018-06-11T02:30:07.647Z,21.77
2018-06-11T02:32:35.822Z,23.60
2018-06-11T02:35:03.788Z,22.53
2018-06-11T02:37:31.984Z,23.00
2018-06-11T02:40:00.169Z,21.50
2018-06-11T02:42:28.350Z,25.23
2018-06-11T02:44:56.533Z,32.27
2018-06-11T02:47:24.709Z,30.33
2018-06-11T02:49:52.894Z,31.17
2018-06-11T02:52:21.041Z,31.87
2018-06-11T02:54:49.194Z,35.60
2018-06-11T02:57:17.108Z,28.40
2018-06-11T02:59:45.269Z,32.13
2018-06-11T03:02:13.429Z,28.90
2018-06-11T03:04:41.622Z,27.13
2018-06-11T03:07:09.799Z,28.03
2018-06-11T03:09:38.006Z,34.23
2018-06-11T03:12:06.178Z,32.87
2018-06-11T03:14:34.407Z,30.73
2018-06-11T03:17:02.595Z,26.60
2018-06-11T03:19:30.762Z,35.13
2018-06-11T03:21:58.921Z,25.93
2018-06-11T03:24:27.074Z,36.83
2018-06-11T03:26:55.246Z,36.73
2018-06-11T03:29:23.405Z,38.43
2018-06-11T03:31:51.593Z,32.80
2018-06-11T03:34:19.497Z,47.00
2018-06-11T03:36:47.681Z,42.50
2018-06-11T03:39:15.848Z,40.43
2018-06-11T03:41:44.026Z,33.50
2018-06-11T03:44:12.210Z,30.70
2018-06-11T03:46:40.369Z,29.77
2018-06-11T03:49:08.540Z,24.33
2018-06-11T03:51:36.718Z,24.83
2018-06-11T03:54:04.890Z,25.37
2018-06-11T03:56:33.062Z,23.77
2018-06-11T03:59:01.261Z,31.47
2018-06-11T04:01:29.430Z,31.77
2018-06-11T04:03:57.594Z,31.77
2018-06-11T04:06:25.749Z,39.70
2018-06-11T04:08:53.916Z,41.37
2018-06-11T04:11:22.098Z,43.23
2018-06-11T04:13:50.283Z,29.03
2018-06-11T04:16:19.857Z,30.67
2018-06-11T04:18:47.777Z,32.13
2018-06-11T04:21:15.989Z,27.47
2018-06-11T04:23:43.909Z,42.03
2018-06-11T04:26:13.017Z,35.07
2018-06-11T04:28:41.178Z,57.17
2018-06-11T04:31:09.357Z,27.67
2018-06-11T04:33:37.550Z,34.97
2018-06-11T04:36:05.842Z,46.10
2018-06-11T04:38:34.021Z,40.13
2018-06-11T04:41:02.205Z,32.23
2018-06-11T04:43:30.365Z,33.97
2018-06-11T04:45:58.549Z,34.23
2018-06-11T04:48:26.490Z,36.40
2018-06-11T04:50:54.668Z,43.73
2018-06-11T04:53:22.870Z,36.07
2018-06-11T04:55:51.045Z,38.53
2018-06-11T04:58:18.968Z,33.73
2018-06-11T05:00:47.122Z,34.70
2018-06-11T05:03:15.306Z,33.53
2018-06-11T05:05:43.471Z,31.10
2018-06-11T05:08:11.667Z,31.97
2018-06-11T05:10:39.818Z,30.57
2018-06-11T05:13:07.977Z,33.23
2018-06-11T05:15:36.149Z,31.90
2018-06-11T05:18:04.309Z,36.37
2018-06-11T05:20:32.486Z,33.07
2018-06-11T05:23:00.674Z,31.60
2018-06-11T05:25:28.837Z,35.07
2018-06-11T05:27:56.772Z,36.13
2018-06-11T05:32:59.697Z,40.93
2018-06-11T05:35:27.851Z,40.37
2018-06-11T05:37:56.024Z,41.40
2018-06-11T05:40:24.244Z,40.40
2018-06-11T05:42:52.370Z,39.13
2018-06-11T05:45:20.551Z,39.60
2018-06-11T05:47:48.740Z,33.50
2018-06-11T05:50:16.660Z,41.23
2018-06-11T05:52:44.861Z,42.57
2018-06-11T05:55:13.046Z,41.30
2018-06-11T05:57:41.208Z,39.87
2018-06-11T06:00:09.390Z,38.43
2018-06-11T06:02:37.599Z,37.20
2018-06-11T06:05:05.766Z,36.27
2018-06-11T06:07:33.700Z,38.07
2018-06-11T06:10:01.883Z,36.27
2018-06-11T06:12:30.053Z,36.47
2018-06-11T06:14:58.226Z,38.33
2018-06-11T06:17:26.406Z,36.37
2018-06-11T06:19:54.576Z,37.00
2018-06-11T06:22:22.755Z,37.27
2018-06-11T06:24:50.930Z,36.07
2018-06-11T06:27:19.102Z,37.30
2018-06-11T06:29:47.277Z,37.67
2018-06-11T06:32:15.442Z,36.33
2018-06-11T06:34:43.642Z,36.33
2018-06-11T06:37:11.796Z,39.73
2018-06-11T06:39:39.999Z,42.60
2018-06-11T06:42:08.137Z,34.63
2018-06-11T06:44:36.328Z,38.83
2018-06-11T06:47:04.508Z,37.40
2018-06-11T06:49:32.450Z,37.57
2018-06-11T06:52:00.628Z,39.80
2018-06-11T06:54:28.817Z,42.27
2018-06-11T06:56:56.985Z,43.83
2018-06-11T06:59:25.166Z,40.93
2018-06-11T07:01:53.337Z,42.07
2018-06-11T07:04:21.505Z,38.17
2018-06-11T07:06:49.683Z,39.33
2018-06-11T07:09:17.866Z,39.33
2018-06-11T07:11:46.057Z,39.07
2018-06-11T07:14:14.022Z,40.40
2018-06-11T07:16:41.958Z,37.97
2018-06-11T07:19:10.210Z,39.20
2018-06-11T07:21:38.411Z,40.23
2018-06-11T07:24:06.597Z,37.50
2018-06-11T07:26:34.766Z,38.83
2018-06-11T07:29:02.958Z,35.40
2018-06-11T07:31:31.121Z,38.90
2018-06-11T07:33:59.302Z,37.60
2018-06-11T07:36:27.472Z,35.93
2018-06-11T07:38:55.863Z,39.17
2018-06-11T07:41:23.773Z,35.67
2018-06-11T07:43:51.970Z,40.23
2018-06-11T07:46:20.155Z,40.33
2018-06-11T07:48:48.336Z,41.10
2018-06-11T07:51:16.519Z,40.73
2018-06-11T07:53:44.693Z,38.60
2018-06-11T07:56:12.874Z,40.30
2018-06-11T07:58:40.816Z,42.70
2018-06-11T08:01:09.003Z,37.03
2018-06-11T08:03:37.177Z,43.50
2018-06-11T08:06:05.369Z,42.50
2018-06-11T08:08:33.309Z,43.73
2018-06-11T08:11:01.510Z,44.73
2018-06-11T08:13:29.620Z,49.67
2018-06-11T08:15:57.870Z,47.07
2018-06-11T08:18:26.112Z,45.20
2018-06-11T08:20:54.384Z,46.30
2018-06-11T08:23:22.597Z,42.07
2018-06-11T08:25:50.781Z,38.93
2018-06-11T08:28:18.958Z,34.37
2018-06-11T08:30:47.145Z,32.93
2018-06-11T08:33:15.310Z,35.73
2018-06-11T08:35:43.485Z,33.97
2018-06-11T08:38:11.717Z,34.57
2018-06-11T08:40:39.914Z,32.80
2018-06-11T08:43:08.096Z,32.87
2018-06-11T08:45:36.265Z,31.60
2018-06-11T08:48:04.437Z,31.60
2018-06-11T08:50:32.353Z,32.33
2018-06-11T08:53:00.565Z,32.03
2018-06-11T08:55:28.745Z,33.07
2018-06-11T08:57:56.655Z,35.60
2018-06-11T09:00:24.817Z,38.13
2018-06-11T09:02:53.018Z,33.77
2018-06-11T09:05:21.194Z,37.57
2018-06-11T09:07:49.389Z,34.83
2018-06-11T09:10:17.579Z,33.33
2018-06-11T09:12:45.726Z,33.27
2018-06-11T09:15:13.908Z,31.57
2018-06-11T09:17:42.064Z,34.00
2018-06-11T09:20:10.246Z,30.90
2018-06-11T09:22:38.424Z,32.37
2018-06-11T09:25:06.651Z,29.73
2018-06-11T09:27:34.791Z,28.37
2018-06-11T09:30:02.969Z,31.13
2018-06-11T09:32:31.145Z,29.97
2018-06-11T09:34:59.318Z,31.10
2018-06-11T09:37:27.515Z,28.07
2018-06-11T09:39:55.673Z,29.50
2018-06-11T09:42:23.596Z,27.33
2018-06-11T09:44:51.764Z,28.20
2018-06-11T09:47:20.762Z,25.73
2018-06-11T09:49:48.938Z,29.13
2018-06-11T09:52:17.122Z,28.17
2018-06-11T09:54:45.297Z,25.57
2018-06-11T09:57:13.469Z,26.87
2018-06-11T09:59:41.630Z,27.43
2018-06-11T10:02:09.821Z,20.57
2018-06-11T10:04:38.029Z,20.87
2018-06-11T10:07:06.212Z,19.67
2018-06-11T10:09:34.413Z,20.93
2018-06-11T10:12:02.603Z,22.70
2018-06-11T10:14:30.771Z,23.60
2018-06-11T10:16:58.997Z,21.70
2018-06-11T10:19:26.918Z,22.83
2018-06-11T10:21:55.124Z,21.57
2018-06-11T10:24:23.315Z,22.07
2018-06-11T10:26:51.297Z,25.60
2018-06-11T10:29:19.470Z,22.93
2018-06-11T10:31:47.687Z,21.90
2018-06-11T10:34:15.859Z,21.97
2018-06-11T10:36:44.057Z,21.60
2018-06-11T10:39:12.256Z,22.07
2018-06-11T10:41:40.434Z,20.60
2018-06-11T10:44:08.613Z,19.80
2018-06-11T10:46:36.630Z,18.07
2018-06-11T10:49:04.954Z,17.83
2018-06-11T10:51:33.230Z,17.57
2018-06-11T10:54:01.198Z,21.47
2018-06-11T10:56:29.527Z,17.17
2018-06-11T10:58:57.910Z,16.67
2018-06-11T11:01:26.291Z,15.70
2018-06-11T11:03:54.663Z,14.83
2018-06-11T11:06:22.906Z,14.33
2018-06-11T11:08:51.223Z,16.23
2018-06-11T11:11:19.192Z,15.60
2018-06-11T11:13:47.454Z,15.97
2018-06-11T11:16:15.751Z,15.70
2018-06-11T11:18:44.059Z,15.43
2018-06-11T11:21:12.314Z,15.53
2018-06-11T11:23:40.625Z,16.33
2018-06-11T11:26:08.695Z,16.23
2018-06-11T11:28:36.712Z,14.93
2018-06-11T11:31:04.969Z,15.43
2018-06-11T11:33:33.277Z,16.60
2018-06-11T11:36:01.617Z,16.63
2018-06-11T11:38:29.942Z,16.50
2018-06-11T11:40:58.270Z,16.80
2018-06-11T11:43:26.544Z,15.20
2018-06-11T11:45:54.773Z,15.53
2018-06-11T11:48:23.086Z,16.50
2018-06-11T11:50:51.113Z,17.17
2018-06-11T11:53:19.414Z,17.40
2018-06-11T11:55:47.704Z,17.97
2018-06-11T11:58:15.689Z,18.03
2018-06-11T12:00:43.974Z,19.00
2018-06-11T12:03:12.223Z,19.70
2018-06-11T12:05:40.474Z,29.73
2018-06-11T12:08:08.762Z,41.53
2018-06-11T12:10:37.030Z,43.23
2018-06-11T12:13:05.357Z,49.57
2018-06-11T12:15:33.681Z,36.47
2018-06-11T12:18:01.989Z,38.30
2018-06-11T12:20:29.989Z,71.43
2018-06-11T12:22:58.253Z,123.40
2018-06-11T12:25:26.493Z,114.60
2018-06-11T12:27:54.749Z,164.93
2018-06-11T12:30:22.959Z,217.13
2018-06-11T12:32:51.249Z,132.27
2018-06-11T12:35:19.530Z,175.17
2018-06-11T12:37:47.795Z,159.50
2018-06-11T12:40:15.794Z,207.27
2018-06-11T12:42:44.114Z,190.97
2018-06-11T12:45:12.301Z,181.43
2018-06-11T12:47:40.466Z,45.40
2018-06-11T12:50:08.653Z,26.37
2018-06-11T12:52:36.618Z,95.53
2018-06-11T12:55:04.930Z,108.80
2018-06-11T12:57:33.222Z,73.07
2018-06-11T13:00:01.541Z,26.70
2018-06-11T13:02:29.816Z,40.67
2018-06-11T13:04:58.087Z,10.17
2018-06-11T13:07:26.330Z,6.57
2018-06-11T13:09:54.592Z,23.97
2018-06-11T13:12:22.841Z,24.07
2018-06-11T13:14:50.846Z,39.47
2018-06-11T13:17:19.157Z,42.03
2018-06-11T13:19:47.490Z,21.30
2018-06-11T13:22:15.835Z,17.27
2018-06-11T13:24:44.199Z,44.37
2018-06-11T13:27:12.475Z,20.10
2018-06-11T13:29:40.752Z,39.93
2018-06-11T13:32:08.987Z,29.47
2018-06-11T13:34:38.101Z,33.50
2018-06-11T13:37:06.407Z,36.53
2018-06-11T13:39:34.616Z,59.40
2018-06-11T13:42:02.847Z,38.57
2018-06-11T13:44:31.094Z,46.30
2018-06-11T13:46:59.353Z,37.17
2018-06-11T13:49:27.673Z,44.13
2018-06-11T13:51:55.945Z,32.70
2018-06-11T13:54:24.242Z,29.63
2018-06-11T13:56:52.568Z,17.20
2018-06-11T13:59:20.830Z,25.83
2018-06-11T14:01:49.158Z,12.47
2018-06-11T14:04:17.474Z,16.17
2018-06-11T14:06:45.712Z,16.97
2018-06-11T14:09:13.871Z,16.10
2018-06-11T14:11:42.058Z,28.97
2018-06-11T14:14:10.233Z,17.77
2018-06-11T14:16:38.446Z,15.47
2018-06-11T14:19:06.611Z,16.20
2018-06-11T14:21:34.556Z,21.67
2018-06-11T14:24:02.722Z,22.83
2018-06-11T14:26:30.933Z,30.10
2018-06-11T14:28:58.848Z,16.67
2018-06-11T14:31:27.072Z,25.63
2018-06-11T14:33:55.282Z,21.90
2018-06-11T14:36:23.461Z,44.53
2018-06-11T14:38:51.673Z,30.73
2018-06-11T14:41:19.853Z,39.90
2018-06-11T14:43:48.138Z,46.00
2018-06-11T14:46:16.409Z,29.60
2018-06-11T14:48:44.662Z,28.77
2018-06-11T14:51:13.016Z,25.80
2018-06-11T14:53:41.289Z,22.97
2018-06-11T14:56:09.595Z,27.90
2018-06-11T14:58:37.903Z,20.93
2018-06-11T15:01:06.203Z,23.73
2018-06-11T15:03:34.418Z,25.43
2018-06-11T15:06:02.613Z,20.90
2018-06-11T15:08:30.806Z,14.10
2018-06-11T15:10:58.741Z,15.03
2018-06-11T15:13:26.947Z,12.40
2018-06-11T15:15:55.121Z,11.93
2018-06-11T15:18:23.294Z,12.30
2018-06-11T15:20:51.533Z,14.07
2018-06-11T15:23:19.730Z,24.43
2018-06-11T15:25:48.001Z,20.47
2018-06-11T15:28:16.193Z,14.37
2018-06-11T15:30:44.353Z,9.13
2018-06-11T15:33:12.546Z,14.13
2018-06-11T15:35:40.749Z,12.63
2018-06-11T15:38:08.942Z,12.23
2018-06-11T15:40:37.126Z,14.03
2018-06-11T15:43:05.322Z,14.13
2018-06-11T15:45:33.525Z,17.33
2018-06-11T15:48:01.695Z,9.17
2018-06-11T15:50:29.625Z,12.67
2018-06-11T15:52:57.793Z,7.83
2018-06-11T15:55:25.969Z,10.30
2018-06-11T15:57:54.164Z,9.53
2018-06-11T16:00:22.323Z,12.27
2018-06-11T16:02:50.492Z,10.90
2018-06-11T16:05:18.704Z,16.37
2018-06-11T16:07:46.840Z,14.67
2018-06-11T16:10:15.008Z,10.23
2018-06-11T16:12:43.171Z,7.33
2018-06-11T16:15:11.316Z,10.43
2018-06-11T16:17:39.507Z,7.33
2018-06-11T16:20:07.677Z,9.87
2018-06-11T16:22:35.869Z,10.37
2018-06-11T16:25:04.019Z,11.80
2018-06-11T16:27:32.177Z,12.13
2018-06-11T16:30:00.334Z,8.07
2018-06-11T16:32:28.542Z,6.87
2018-06-11T16:34:56.743Z,5.90
2018-06-11T16:37:24.933Z,5.43
2018-06-11T16:39:53.107Z,7.20
2018-06-11T16:42:21.302Z,5.27
2018-06-11T16:44:49.481Z,5.80
2018-06-11T16:47:17.496Z,12.63
2018-06-11T16:49:45.695Z,9.07
2018-06-11T16:52:13.881Z,9.13
2018-06-11T16:54:42.055Z,11.30
2018-06-11T16:57:10.217Z,16.93
2018-06-11T16:59:38.389Z,13.60
2018-06-11T17:02:06.570Z,24.70
2018-06-11T17:04:34.730Z,12.40
2018-06-11T17:07:02.956Z,14.30
2018-06-11T17:09:31.109Z,16.00
2018-06-11T17:11:59.298Z,13.83
2018-06-11T17:14:27.465Z,15.47
2018-06-11T17:16:55.632Z,14.63
2018-06-11T17:19:23.797Z,14.07
2018-06-11T17:21:52.761Z,11.97
2018-06-11T17:24:20.913Z,15.40
2018-06-11T17:26:49.112Z,14.30
2018-06-11T17:29:17.322Z,20.27
2018-06-11T17:31:45.607Z,19.83
2018-06-11T17:34:13.733Z,12.90
2018-06-11T17:36:42.029Z,15.07
2018-06-11T17:39:10.208Z,24.63
2018-06-11T17:41:38.397Z,16.23
2018-06-11T17:44:06.586Z,23.93
2018-06-11T17:46:34.510Z,18.53
2018-06-11T17:49:02.705Z,16.27
2018-06-11T17:51:30.894Z,19.30
2018-06-11T17:53:59.102Z,21.37
2018-06-11T17:56:27.295Z,16.73
2018-06-11T17:58:56.085Z,13.50
2018-06-11T18:01:24.258Z,21.23
2018-06-11T18:03:52.446Z,23.50
2018-06-11T18:06:20.617Z,52.23
2018-06-11T18:08:48.796Z,15.53
2018-06-11T18:11:16.983Z,22.97
2018-06-11T18:13:45.166Z,17.73
2018-06-11T18:16:13.338Z,15.30
2018-06-11T18:18:41.580Z,24.43
2018-06-11T18:21:09.761Z,20.57
2018-06-11T18:23:37.944Z,20.27
2018-06-11T18:26:06.116Z,23.23
2018-06-11T18:28:34.302Z,15.77
2018-06-11T18:31:02.489Z,20.87
2018-06-11T18:33:30.709Z,48.87
2018-06-11T18:35:58.875Z,26.50
2018-06-11T18:38:27.039Z,10.43
2018-06-11T18:40:55.214Z,21.43
2018-06-11T18:43:23.167Z,12.23
2018-06-11T18:45:51.333Z,17.20
2018-06-11T18:48:19.521Z,20.03
2018-06-11T18:50:47.701Z,18.97
2018-06-11T18:53:15.630Z,20.17
2018-06-11T18:55:43.806Z,15.60
2018-06-11T18:58:11.986Z,19.17
2018-06-11T19:00:40.205Z,25.57
2018-06-11T19:03:08.120Z,14.37
2018-06-11T19:05:36.329Z,19.47
2018-06-11T19:08:04.284Z,14.40
2018-06-11T19:10:32.489Z,19.20
2018-06-11T19:13:00.735Z,24.53
2018-06-11T19:15:28.991Z,14.57
2018-06-11T19:17:57.287Z,10.50
2018-06-11T19:20:25.570Z,15.50
2018-06-11T19:22:53.971Z,12.13
2018-06-11T19:25:21.963Z,19.70
2018-06-11T19:27:50.241Z,16.23
2018-06-11T19:30:18.534Z,22.77
2018-06-11T19:32:46.848Z,34.67
2018-06-11T19:35:15.215Z,35.20
2018-06-11T19:37:43.202Z,17.60
2018-06-11T19:40:11.478Z,28.37
2018-06-11T19:42:39.778Z,35.63
2018-06-11T19:45:07.841Z,43.00
2018-06-11T19:47:36.100Z,47.23
2018-06-11T19:50:04.538Z,33.13
2018-06-11T19:52:32.669Z,35.00
2018-06-11T19:55:00.704Z,16.97
2018-06-11T19:57:28.993Z,26.10
2018-06-11T19:59:57.306Z,31.57
2018-06-11T20:02:26.293Z,28.40
2018-06-11T20:04:54.314Z,54.90
2018-06-11T20:07:22.593Z,30.13
2018-06-11T20:09:50.873Z,33.67
2018-06-11T20:12:19.182Z,37.80
2018-06-11T20:14:47.423Z,38.73
2018-06-11T20:17:15.701Z,34.20
2018-06-11T20:19:43.985Z,30.63
2018-06-11T20:22:12.272Z,30.77
2018-06-11T20:24:40.505Z,53.60
2018-06-11T20:27:08.774Z,47.93
2018-06-11T20:29:37.049Z,47.57
2018-06-11T20:32:05.346Z,37.70
2018-06-11T20:34:33.618Z,35.63
2018-06-11T20:37:01.938Z,44.30
2018-06-11T20:39:30.221Z,34.27
2018-06-11T20:41:58.472Z,44.87
2018-06-11T20:44:26.742Z,46.83
2018-06-11T20:46:54.996Z,48.30
2018-06-11T20:49:23.298Z,40.13
2018-06-11T20:51:51.542Z,41.93
2018-06-11T20:54:20.137Z,32.03
2018-06-11T20:56:48.450Z,34.93
2018-06-11T20:59:16.774Z,21.77
2018-06-11T21:01:45.040Z,26.23
2018-06-11T21:04:13.365Z,60.43
2018-06-11T21:06:41.668Z,40.87
2018-06-11T21:09:09.912Z,56.77
2018-06-11T21:11:38.169Z,25.00
2018-06-11T21:14:06.515Z,36.90
2018-06-11T21:16:34.723Z,29.33
2018-06-11T21:19:03.061Z,18.93
2018-06-11T21:21:31.314Z,31.73
2018-06-11T21:23:59.594Z,23.83
2018-06-11T21:26:27.916Z,19.77
2018-06-11T21:28:56.163Z,26.13
2018-06-11T21:31:24.470Z,32.97
2018-06-11T21:33:52.718Z,39.03
2018-06-11T21:36:20.953Z,37.40
2018-06-11T21:38:49.217Z,36.07
2018-06-11T21:41:17.470Z,57.03
2018-06-11T21:43:45.695Z,56.70
2018-06-11T21:46:13.970Z,70.40
2018-06-11T21:48:42.218Z,56.50
2018-06-11T21:51:10.494Z,59.33
2018-06-11T21:53:38.697Z,56.03
2018-06-11T21:56:06.930Z,46.23
2018-06-11T21:58:35.210Z,47.43
2018-06-11T22:01:03.542Z,41.03
2018-06-11T22:03:31.915Z,57.33
2018-06-11T22:06:00.100Z,47.97
2018-06-11T22:08:28.331Z,34.60
2018-06-11T22:10:56.653Z,31.33
2018-06-11T22:13:24.908Z,35.63
2018-06-11T22:15:53.134Z,39.07
2018-06-11T22:18:21.381Z,36.13
2018-06-11T22:20:49.386Z,46.33
2018-06-11T22:23:17.668Z,45.53
2018-06-11T22:25:45.951Z,41.67
2018-06-11T22:28:14.234Z,35.50
2018-06-11T22:30:42.572Z,50.13
2018-06-11T22:33:10.797Z,43.27
2018-06-11T22:35:39.058Z,51.10
2018-06-11T22:38:07.358Z,61.73
2018-06-11T22:40:35.634Z,41.97
2018-06-11T22:43:03.932Z,59.30
2018-06-11T22:45:32.217Z,57.23
2018-06-11T22:48:00.461Z,77.13
2018-06-11T22:50:28.737Z,47.17
2018-06-11T22:52:56.975Z,70.87
2018-06-11T22:55:25.187Z,58.17
2018-06-11T22:57:53.445Z,68.43
2018-06-11T23:00:31.990Z,55.17
2018-06-11T23:03:00.342Z,42.47
2018-06-11T23:05:28.674Z,38.10
2018-06-11T23:07:57.046Z,52.43
2018-06-11T23:10:25.486Z,55.23
2018-06-11T23:12:53.797Z,99.80
2018-06-11T23:15:22.038Z,64.30
2018-06-11T23:17:50.310Z,45.13
2018-06-11T23:20:18.577Z,73.53
2018-06-11T23:22:46.826Z,35.33
2018-06-11T23:25:14.796Z,33.77
2018-06-11T23:27:46.510Z,27.90
2018-06-11T23:30:17.452Z,43.10
2018-06-11T23:32:45.770Z,44.27
2018-06-11T23:35:13.983Z,32.27
2018-06-11T23:37:42.251Z,35.03
2018-06-11T23:40:23.107Z,39.23
2018-06-11T23:47:27.066Z,57.97
2018-06-11T23:49:55.338Z,69.80
2018-06-11T23:52:25.254Z,46.73
2018-06-11T23:54:55.670Z,69.50
2018-06-11T23:57:23.934Z,47.37
2018-06-11T23:59:52.221Z,39.37
